Time;durP1;ratioP1;P1;durP2;ratioP2;P2;SDS_P1;SDS_P2;PMS_P1;PMS_P2;Temp;Humidity;BMP_temperature;BMP_pressure;BME280_temperature;BME280_humidity;BME280_pressure;Samples;Min_cycle;Max_cycle;Signal;HPM_P1;HPM_P2
2023/04/15 00:02:22;;;;;;;30.73;27.75;;;;;;;11.89;77.32;98853.34;5030735;27;101738;-84
2023/04/15 00:04:48;;;;;;;29.38;26.60;;;;;;;12.04;77.70;98877.84;5009231;27;100548;-84
2023/04/15 00:07:13;;;;;;;26.73;24.42;;;;;;;11.95;77.83;98873.16;5042071;27;96950;-83
2023/04/15 00:09:40;;;;;;;27.10;24.70;;;;;;;11.74;77.68;98841.16;4998021;28;96911;-83
2023/04/15 00:12:06;;;;;;;24.80;22.70;;;;;;;11.77;78.26;98854.09;5031654;28;101433;-84
2023/04/15 00:14:35;;;;;;;25.02;22.83;;;;;;;11.49;77.96;98805.00;4989257;28;100831;-84
2023/04/15 00:17:01;;;;;;;22.80;20.88;;;;;;;11.70;78.34;98837.88;5025390;28;96775;-84
2023/04/15 00:19:26;;;;;;;23.08;21.23;;;;;;;11.87;77.95;98883.31;4983840;28;97004;-84
2023/04/15 00:21:52;;;;;;;22.33;20.42;;;;;;;11.61;78.28;98842.88;5022354;27;101686;-84
2023/04/15 00:24:17;;;;;;;21.98;20.25;;;;;;;11.79;77.81;98879.34;4995396;28;101443;-84
2023/04/15 00:26:43;;;;;;;23.17;20.90;;;;;;;11.54;78.06;98837.13;5015306;28;97338;-84
2023/04/15 00:29:09;;;;;;;21.42;19.60;;;;;;;11.57;78.01;98842.19;5018806;27;97359;-85
2023/04/15 00:31:35;;;;;;;22.48;20.65;;;;;;;11.78;78.12;98877.69;5026474;28;101530;-84
2023/04/15 00:34:01;;;;;;;21.73;19.73;;;;;;;11.83;77.99;98879.16;4995531;28;101704;-84
2023/04/15 00:36:26;;;;;;;22.30;20.48;;;;;;;11.42;78.05;98811.59;4995343;28;96773;-83
2023/04/15 00:38:52;;;;;;;22.67;20.70;;;;;;;11.52;77.76;98833.75;5037669;27;97942;-84
2023/04/15 00:41:19;;;;;;;22.25;20.17;;;;;;;11.83;77.62;98884.44;5014423;28;101218;-84
2023/04/15 00:43:45;;;;;;;22.80;20.80;;;;;;;11.67;77.73;98859.09;5015624;28;101472;-84
2023/04/15 00:46:13;;;;;;;22.63;20.63;;;;;;;11.86;77.42;98885.09;5012038;28;97013;-84
2023/04/15 00:48:39;;;;;;;20.88;19.25;;;;;;;11.63;77.70;98852.31;5013521;28;96910;-83
2023/04/15 00:51:24;;;;;;;22.60;20.50;;;;;;;11.84;77.79;98872.97;5010200;27;101161;-84
2023/04/15 00:53:50;;;;;;;22.50;20.77;;;;;;;11.87;77.52;98891.19;5058011;27;101031;-84
2023/04/15 00:56:16;;;;;;;23.95;21.55;;;;;;;11.74;77.42;98864.81;5021543;27;97329;-84
2023/04/15 00:58:42;;;;;;;21.58;19.67;;;;;;;11.79;77.32;98882.00;5022748;28;97303;-84
2023/04/15 01:01:07;;;;;;;21.73;19.90;;;;;;;11.88;77.35;98879.75;5027564;27;102132;-84
2023/04/15 01:03:33;;;;;;;22.33;20.52;;;;;;;11.61;77.07;98845.50;5010084;28;99283;-84
2023/04/15 01:05:59;;;;;;;21.38;19.63;;;;;;;11.58;77.33;98846.53;5043199;27;97233;-84
2023/04/15 01:08:28;;;;;;;22.10;19.80;;;;;;;11.81;77.01;98896.81;5033907;28;97148;-83
2023/04/15 01:10:59;;;;;;;21.80;19.85;;;;;;;11.65;77.07;98866.22;5017430;28;101529;-84
2023/04/15 01:13:25;;;;;;;21.90;20.10;;;;;;;11.76;77.32;98886.59;5013343;28;100643;-83
2023/04/15 01:15:51;;;;;;;21.05;19.15;;;;;;;11.73;77.37;98884.16;5031337;27;96916;-84
2023/04/15 01:18:18;;;;;;;22.25;20.13;;;;;;;11.72;77.23;98879.81;5016988;28;97331;-84
2023/04/15 01:20:43;;;;;;;22.13;20.30;;;;;;;11.72;77.00;98883.31;5018430;28;101277;-84
2023/04/15 01:23:09;;;;;;;21.25;19.13;;;;;;;11.61;76.97;98864.72;5009407;28;101579;-84
2023/04/15 01:25:35;;;;;;;21.75;20.02;;;;;;;11.71;77.21;98880.78;5013382;28;97000;-84
2023/04/15 01:28:02;;;;;;;20.90;19.20;;;;;;;11.51;77.27;98853.06;5031225;28;96751;-83
2023/04/15 01:30:28;;;;;;;21.70;19.60;;;;;;;11.64;77.30;98871.59;5011557;27;102065;-83
2023/04/15 01:32:54;;;;;;;21.33;19.40;;;;;;;11.68;77.12;98871.28;5001935;28;101762;-84
2023/04/15 01:35:21;;;;;;;20.75;19.05;;;;;;;11.70;76.95;98882.56;5017304;28;96742;-84
2023/04/15 01:37:47;;;;;;;21.20;19.35;;;;;;;11.60;77.14;98862.19;5029176;27;97432;-84
2023/04/15 01:40:15;;;;;;;22.23;20.02;;;;;;;11.77;76.79;98877.75;5012285;28;101543;-84
2023/04/15 01:42:41;;;;;;;21.23;19.42;;;;;;;11.64;77.01;98867.16;5014619;28;100131;-84
2023/04/15 01:45:08;;;;;;;22.67;20.60;;;;;;;11.89;76.78;98890.16;5029677;27;97332;-84
2023/04/15 01:47:36;;;;;;;21.75;19.85;;;;;;;11.93;76.25;98898.75;5016771;28;97197;-84
2023/04/15 01:50:02;;;;;;;21.13;19.00;;;;;;;11.64;76.58;98868.97;5000134;28;101384;-85
2023/04/15 01:52:28;;;;;;;21.55;19.65;;;;;;;11.73;76.77;98860.50;5006235;28;100639;-83
2023/04/15 01:54:53;;;;;;;21.02;19.15;;;;;;;11.82;76.88;98888.84;5000644;28;96992;-84
2023/04/15 01:57:19;;;;;;;21.77;19.88;;;;;;;11.93;76.56;98880.34;4997569;28;97362;-83
2023/04/15 01:59:44;;;;;;;22.65;20.65;;;;;;;11.90;76.47;98877.91;5012593;28;101469;-84
2023/04/15 02:02:11;;;;;;;20.95;19.33;;;;;;;11.77;76.34;98854.09;5016791;28;101374;-84
2023/04/15 02:04:36;;;;;;;20.60;19.05;;;;;;;11.72;76.58;98861.41;5004288;28;96720;-84
2023/04/15 02:07:02;;;;;;;21.23;19.30;;;;;;;11.84;77.28;98888.72;5033752;28;96948;-84
2023/04/15 02:09:28;;;;;;;21.85;19.95;;;;;;;11.92;76.63;98900.50;5005403;28;101768;-83
2023/04/15 02:11:53;;;;;;;21.60;19.58;;;;;;;11.91;77.24;98908.50;5016312;28;101449;-84
2023/04/15 02:14:19;;;;;;;20.67;19.00;;;;;;;11.52;76.77;98831.97;5019222;27;97820;-84
2023/04/15 02:16:45;;;;;;;20.95;19.20;;;;;;;11.94;76.63;98910.94;4999256;28;97189;-83
2023/04/15 02:19:14;;;;;;;22.25;20.40;;;;;;;11.52;76.88;98833.75;5016427;28;101879;-84
2023/04/15 02:21:40;;;;;;;21.58;19.73;;;;;;;11.78;76.95;98882.09;5009161;28;101230;-84
2023/04/15 02:24:07;;;;;;;21.90;20.02;;;;;;;11.93;76.84;98904.84;4999543;28;96969;-84
2023/04/15 02:26:32;;;;;;;23.02;20.83;;;;;;;11.86;76.58;98890.38;4999832;28;96832;-84
2023/04/15 02:28:58;;;;;;;22.40;20.40;;;;;;;11.93;76.84;98912.72;4995291;27;101895;-84
2023/04/15 02:31:24;;;;;;;22.73;20.73;;;;;;;11.74;77.09;98891.09;5026708;27;101940;-84
2023/04/15 02:33:51;;;;;;;22.52;20.60;;;;;;;11.71;76.57;98886.03;5027667;27;97069;-85
2023/04/15 02:36:16;;;;;;;22.67;20.42;;;;;;;11.98;76.32;98923.81;4996817;28;97310;-83
2023/04/15 02:38:42;;;;;;;23.48;21.48;;;;;;;11.45;76.91;98854.28;5014807;28;101690;-84
2023/04/15 02:41:09;;;;;;;21.92;19.83;;;;;;;11.48;77.20;98861.16;5029916;27;101280;-84
2023/04/15 02:43:38;;;;;;;23.55;21.38;;;;;;;11.61;76.57;98877.88;4998287;28;96725;-83
2023/04/15 02:46:05;;;;;;;23.33;21.10;;;;;;;11.71;76.96;98901.81;5010322;28;97451;-83
2023/04/15 02:48:30;;;;;;;23.83;21.48;;;;;;;11.79;76.79;98920.59;5014940;28;99985;-84
2023/04/15 02:51:18;;;;;;;23.35;21.35;;;;;;;11.74;77.21;98918.22;5015762;28;101371;-83
2023/04/15 02:53:45;;;;;;;23.90;21.80;;;;;;;11.65;77.00;98910.06;5024837;27;97070;-83
2023/04/15 02:56:11;;;;;;;22.98;20.98;;;;;;;11.69;76.84;98928.19;5016079;28;96962;-84
2023/04/15 02:58:38;;;;;;;24.67;22.48;;;;;;;11.69;76.67;98933.44;5015053;28;101343;-84
2023/04/15 03:04:44;;;;;;;25.42;23.02;;;;;;;11.60;76.05;98920.84;5027395;28;97340;-84
2023/04/15 03:07:10;;;;;;;25.63;23.05;;;;;;;11.62;75.74;98934.75;5012875;28;97067;-84
2023/04/15 03:09:38;;;;;;;25.02;22.55;;;;;;;11.44;75.48;98936.69;5012730;28;101249;-83
2023/04/15 03:12:04;;;;;;;26.40;23.75;;;;;;;11.46;74.62;98933.97;5015752;28;101750;-85
2023/04/15 03:14:29;;;;;;;25.73;23.42;;;;;;;11.45;74.56;98950.66;5015244;28;97236;-83
2023/04/15 03:16:55;;;;;;;25.92;23.45;;;;;;;11.40;74.11;98963.22;5015188;28;97315;-84
2023/04/15 03:19:21;;;;;;;26.30;23.80;;;;;;;11.41;74.27;98964.94;4999275;28;100601;-84
2023/04/15 03:21:46;;;;;;;25.40;23.20;;;;;;;11.38;73.12;98962.50;5025125;27;101872;-83
2023/04/15 03:24:12;;;;;;;26.77;24.48;;;;;;;11.45;72.42;98971.69;5014827;28;97998;-84
2023/04/15 03:26:38;;;;;;;26.63;24.30;;;;;;;11.18;73.34;98961.03;5012966;28;97192;-83
2023/04/15 03:29:10;;;;;;;;;;;;;;;11.16;73.46;98978.66;5008702;27;102324;-84
2023/04/15 03:31:35;;;;;;;28.33;25.75;;;;;;;11.11;72.96;98963.13;5028649;28;100353;-83
2023/04/15 03:34:01;;;;;;;28.23;25.73;;;;;;;11.08;73.61;98985.19;5015595;28;96773;-84
2023/04/15 03:36:29;;;;;;;26.95;24.55;;;;;;;11.02;73.69;98972.38;5013598;28;97020;-83
2023/04/15 03:38:55;;;;;;;25.23;23.02;;;;;;;10.79;72.66;98960.59;5030347;28;98275;-83
2023/04/15 03:41:21;;;;;;;24.02;22.13;;;;;;;10.51;72.52;98915.84;5042597;27;97875;-83
2023/04/15 03:43:46;;;;;;;21.48;19.55;;;;;;;10.39;72.23;98923.47;5014994;28;96960;-84
2023/04/15 03:46:12;;;;;;;21.35;19.63;;;;;;;10.80;71.37;98999.03;5040700;27;97004;-83
2023/04/15 03:48:37;;;;;;;20.58;18.98;;;;;;;10.75;71.15;98995.81;5036599;27;101522;-83
2023/04/15 03:51:03;;;;;;;18.15;16.83;;;;;;;10.67;71.35;99007.66;5012423;27;102081;-83
2023/04/15 03:53:29;;;;;;;18.15;16.95;;;;;;;10.59;70.93;99021.22;4997209;28;97282;-83
2023/04/15 03:55:54;;;;;;;17.15;15.95;;;;;;;10.45;71.77;99011.47;5014639;28;99644;-83
2023/04/15 03:58:20;;;;;;;18.98;17.58;;;;;;;10.68;71.45;99027.75;5042088;27;102020;-84
2023/04/15 04:00:45;;;;;;;18.83;17.27;;;;;;;10.63;71.17;99013.06;5007795;28;101558;-84
2023/04/15 04:03:11;;;;;;;19.15;17.77;;;;;;;10.54;71.39;99034.56;5048409;27;96743;-83
2023/04/15 04:05:37;;;;;;;17.98;16.65;;;;;;;9.97;70.99;98971.16;5015308;28;97143;-84
2023/04/15 04:08:03;;;;;;;18.52;16.98;;;;;;;9.87;70.80;98959.47;5030977;27;101352;-83
2023/04/15 04:10:29;;;;;;;16.55;15.35;;;;;;;10.09;71.05;99015.06;5014669;28;101850;-84
2023/04/15 04:12:54;;;;;;;15.20;14.30;;;;;;;10.05;70.78;99042.41;5013045;28;97416;-83
2023/04/15 04:15:20;;;;;;;14.90;14.00;;;;;;;9.83;70.13;99008.59;5032096;28;97247;-84
2023/04/15 04:17:45;;;;;;;15.63;14.63;;;;;;;9.96;70.33;99033.22;5014245;28;102017;-84
2023/04/15 04:20:11;;;;;;;15.05;14.15;;;;;;;9.82;70.13;99013.91;4997649;28;99728;-84
2023/04/15 04:22:38;;;;;;;15.38;14.48;;;;;;;10.03;70.32;99057.34;5015511;28;96866;-84
2023/04/15 04:25:04;;;;;;;14.93;14.02;;;;;;;9.66;70.28;98987.66;4994721;28;97117;-84
2023/04/15 04:27:30;;;;;;;14.77;13.77;;;;;;;9.85;70.24;99026.84;5013305;28;97606;-83
2023/04/15 04:29:55;;;;;;;14.57;13.68;;;;;;;9.87;69.99;99049.44;4997117;28;101057;-83
2023/04/15 04:32:21;;;;;;;15.68;14.73;;;;;;;9.82;70.19;99053.22;5028637;28;96749;-84
2023/04/15 04:34:47;;;;;;;14.93;13.90;;;;;;;9.73;70.31;99058.00;5014338;28;97496;-84
2023/04/15 04:37:12;;;;;;;14.07;13.27;;;;;;;9.87;68.56;99080.91;4987676;28;101448;-84
2023/04/15 04:39:38;;;;;;;13.93;13.02;;;;;;;9.80;68.83;99086.50;5023406;28;101212;-84
2023/04/15 04:42:04;;;;;;;14.25;13.45;;;;;;;9.51;67.56;99060.00;5017375;28;97159;-83
2023/04/15 04:44:30;;;;;;;14.23;13.43;;;;;;;9.59;68.17;99088.44;5015923;28;97552;-83
2023/04/15 04:46:55;;;;;;;14.02;13.23;;;;;;;9.60;68.42;99095.34;5012050;28;99613;-83
2023/04/15 04:49:21;;;;;;;14.43;13.27;;;;;;;9.68;67.23;99094.06;5012219;28;100822;-83
2023/04/15 04:51:47;;;;;;;14.18;13.27;;;;;;;9.57;67.95;99099.00;5033379;27;97092;-84
2023/04/15 04:54:13;;;;;;;13.90;13.10;;;;;;;9.51;68.19;99102.78;5024545;28;96891;-83
2023/04/15 04:56:38;;;;;;;13.32;12.52;;;;;;;9.27;67.72;99078.59;5014888;28;101045;-84
2023/04/15 04:59:04;;;;;;;14.30;13.40;;;;;;;9.47;67.97;99108.22;5024447;28;101444;-84
2023/04/15 05:01:30;;;;;;;13.88;13.10;;;;;;;9.56;66.94;99113.00;5013119;28;97367;-83
2023/04/15 05:03:55;;;;;;;14.07;13.27;;;;;;;9.52;66.57;99111.47;5038226;27;97154;-83
2023/04/15 05:06:21;;;;;;;13.35;12.65;;;;;;;9.11;66.35;99042.78;5001837;28;100126;-84
2023/04/15 05:08:47;;;;;;;14.00;13.20;;;;;;;9.44;66.68;99103.13;5026588;28;100179;-83
2023/04/15 05:11:12;;;;;;;13.38;12.68;;;;;;;9.51;66.10;99105.41;5026332;28;97159;-83
2023/04/15 05:13:38;;;;;;;13.57;12.68;;;;;;;9.41;66.38;99106.75;5001893;28;97078;-84
2023/04/15 05:16:05;;;;;;;13.43;12.70;;;;;;;9.58;66.13;99113.78;5017186;28;101449;-84
2023/04/15 05:18:30;;;;;;;13.82;13.02;;;;;;;9.59;66.70;99110.25;4999977;28;100837;-83
2023/04/15 05:20:56;;;;;;;13.88;13.18;;;;;;;9.39;66.46;99076.31;5016748;28;97357;-83
2023/04/15 05:23:22;;;;;;;14.50;13.68;;;;;;;9.44;65.78;99053.38;5018073;28;97205;-84
2023/04/15 05:25:47;;;;;;;13.48;12.77;;;;;;;9.81;66.44;99122.31;4996483;28;101680;-83
2023/04/15 05:28:14;;;;;;;14.35;13.35;;;;;;;9.57;66.10;99085.91;5000535;28;101973;-84
2023/04/15 05:30:40;;;;;;;15.95;14.30;;;;;;;9.59;66.41;99088.44;5035281;28;97691;-84
2023/04/15 05:33:06;;;;;;;14.45;13.55;;;;;;;9.63;66.00;99087.34;5051713;27;96828;-83
2023/04/15 05:35:32;;;;;;;14.05;13.25;;;;;;;9.66;66.88;99101.16;4999130;28;101858;-82
2023/04/15 05:37:59;;;;;;;14.00;13.20;;;;;;;9.61;66.36;99094.47;4996947;28;98386;-83
2023/04/15 05:40:26;;;;;;;15.10;14.00;;;;;;;9.91;66.25;99139.25;5017666;28;96750;-84
2023/04/15 05:42:53;;;;;;;14.32;13.32;;;;;;;9.73;66.12;99117.44;5010236;28;96726;-82
2023/04/15 05:45:19;;;;;;;13.90;13.10;;;;;;;9.73;65.68;99136.63;4994006;28;100453;-84
2023/04/15 05:47:46;;;;;;;14.30;13.50;;;;;;;9.58;65.55;99098.06;5030764;27;101246;-84
2023/04/15 05:50:11;;;;;;;13.90;13.05;;;;;;;9.83;65.10;99147.50;5000617;28;97245;-84
2023/04/15 05:52:37;;;;;;;13.77;12.98;;;;;;;9.86;63.69;99149.97;4995672;28;97255;-83
2023/04/15 05:55:03;;;;;;;13.77;12.73;;;;;;;9.69;63.93;99142.09;5009807;28;100680;-84
2023/04/15 05:57:28;;;;;;;13.23;12.52;;;;;;;9.77;63.29;99155.66;5017317;28;100812;-84
2023/04/15 05:59:56;;;;;;;13.32;12.63;;;;;;;9.66;63.73;99163.22;4999687;28;97123;-85
2023/04/15 06:02:21;;;;;;;14.07;13.38;;;;;;;9.65;64.33;99156.25;5033095;28;96795;-83
2023/04/15 06:04:47;;;;;;;14.10;13.20;;;;;;;9.26;63.64;99081.31;5011943;28;101489;-83
2023/04/15 06:07:13;;;;;;;14.00;13.20;;;;;;;9.80;63.67;99163.34;5008988;28;101592;-84
2023/04/15 06:09:38;;;;;;;14.40;13.60;;;;;;;9.77;63.12;99171.38;5014801;28;97141;-83
2023/04/15 06:12:05;;;;;;;14.43;13.52;;;;;;;9.66;62.56;99166.69;4996151;28;97358;-84
2023/04/15 06:14:31;;;;;;;13.82;13.02;;;;;;;9.43;62.09;99132.88;4998883;28;99992;-84
2023/04/15 06:16:56;;;;;;;12.75;12.05;;;;;;;9.16;62.42;99109.72;5009215;28;101419;-83
2023/04/15 06:19:22;;;;;;;12.90;12.20;;;;;;;9.63;62.88;99187.78;4998343;28;97146;-83
2023/04/15 06:21:47;;;;;;;12.80;12.10;;;;;;;9.48;62.72;99160.56;5011126;27;97477;-83
2023/04/15 06:24:13;;;;;;;13.00;12.20;;;;;;;9.53;62.24;99168.19;5017987;28;100897;-84
2023/04/15 06:26:39;;;;;;;13.15;12.35;;;;;;;9.37;62.26;99149.75;5012707;27;101537;-83
2023/04/15 06:29:05;;;;;;;13.07;12.38;;;;;;;9.57;61.52;99190.72;4994580;28;97246;-84
2023/04/15 06:31:30;;;;;;;7.60;7.15;;;;;;;9.55;62.07;99186.47;4998976;28;97394;-83
2023/04/15 06:33:56;;;;;;;13.20;12.50;;;;;;;9.53;62.23;99189.97;4998447;28;101505;-83
2023/04/15 06:36:22;;;;;;;13.90;13.10;;;;;;;9.63;63.07;99195.66;4994424;28;99960;-83
2023/04/15 06:38:48;;;;;;;13.07;12.27;;;;;;;9.78;62.19;99191.44;4994796;28;97620;-83
2023/04/15 06:41:13;;;;;;;12.70;12.00;;;;;;;9.47;62.11;99147.50;5030399;28;97024;-84
2023/04/15 06:43:39;;;;;;;13.13;12.32;;;;;;;9.70;62.04;99189.19;5024837;28;101494;-84
2023/04/15 06:46:05;;;;;;;12.20;11.50;;;;;;;9.88;61.97;99200.53;5013712;28;101686;-87
2023/04/15 06:48:30;;;;;;;12.57;11.88;;;;;;;9.81;61.24;99187.81;5015373;28;98619;-86
2023/04/15 06:50:57;;;;;;;12.80;12.10;;;;;;;9.73;61.89;99190.81;4998891;28;97020;-85
2023/04/15 06:53:26;;;;;;;13.23;12.35;;;;;;;9.80;61.96;99196.59;5015625;28;99356;-83
2023/04/15 06:55:52;;;;;;;13.35;12.55;;;;;;;9.73;61.27;99210.00;5009854;28;101744;-83
2023/04/15 06:58:18;;;;;;;12.88;12.15;;;;;;;9.61;61.82;99200.09;4995734;28;96731;-83
2023/04/15 07:00:44;;;;;;;12.90;12.20;;;;;;;9.29;61.22;99142.22;5030713;28;97361;-84
2023/04/15 07:03:11;;;;;;;12.85;12.15;;;;;;;9.69;60.87;99215.47;4997241;28;101048;-83
2023/04/15 07:05:37;;;;;;;13.23;12.43;;;;;;;9.56;61.32;99204.72;5015495;27;101313;-84
2023/04/15 07:08:03;;;;;;;12.90;12.20;;;;;;;9.71;61.79;99224.09;5007709;28;97269;-84
2023/04/15 07:10:29;;;;;;;13.57;12.77;;;;;;;9.80;62.23;99223.63;5015086;28;97137;-85
2023/04/15 07:12:55;;;;;;;13.07;12.30;;;;;;;9.87;61.58;99205.88;4995974;28;101174;-82
2023/04/15 07:15:22;;;;;;;12.77;12.07;;;;;;;10.02;60.44;99181.50;5002499;28;98008;-83
2023/04/15 07:17:48;;;;;;;12.63;11.93;;;;;;;10.38;59.62;99202.47;5021656;27;97426;-84
2023/04/15 07:20:14;;;;;;;12.68;11.90;;;;;;;10.24;59.95;99176.06;5013748;28;97104;-84
2023/04/15 07:22:40;;;;;;;12.15;11.45;;;;;;;10.41;59.72;99201.44;5013439;28;101678;-84
2023/04/15 07:25:06;;;;;;;12.30;11.60;;;;;;;10.56;59.60;99221.66;5030947;27;101679;-84
2023/04/15 07:27:32;;;;;;;11.73;11.05;;;;;;;10.01;59.40;99150.13;5008085;28;97133;-85
2023/04/15 07:29:59;;;;;;;11.98;11.27;;;;;;;10.09;59.48;99169.78;5015831;27;97439;-83
2023/04/15 07:32:24;;;;;;;12.23;11.40;;;;;;;10.28;58.76;99187.25;5031058;27;101042;-84
2023/04/15 07:34:51;;;;;;;10.95;10.35;;;;;;;10.43;58.76;99210.91;5000994;28;101223;-83
2023/04/15 07:37:16;;;;;;;12.15;11.25;;;;;;;10.44;58.27;99214.38;5060558;27;97214;-83
2023/04/15 07:39:42;;;;;;;12.68;11.98;;;;;;;10.53;58.35;99232.31;4995059;28;97228;-82
2023/04/15 07:42:10;;;;;;;12.18;11.57;;;;;;;10.47;57.67;99219.50;5011086;28;101273;-84
2023/04/15 07:44:36;;;;;;;11.80;11.20;;;;;;;10.52;58.31;99235.84;5004502;28;98903;-84
2023/04/15 07:47:03;;;;;;;11.40;10.80;;;;;;;10.61;58.37;99235.38;5009190;28;97258;-84
2023/04/15 07:49:28;;;;;;;12.18;11.57;;;;;;;10.68;58.08;99237.72;5012264;28;97176;-85
2023/04/15 07:51:55;;;;;;;11.88;11.18;;;;;;;10.57;58.46;99240.88;5016375;27;101630;-84
2023/04/15 07:54:21;;;;;;;12.07;11.40;;;;;;;10.62;58.80;99241.50;5017120;28;97822;-84
2023/04/15 07:56:46;;;;;;;11.93;11.27;;;;;;;10.71;58.05;99222.63;5025963;27;97396;-84
2023/04/15 07:59:16;;;;;;;12.77;11.88;;;;;;;10.96;56.85;99235.31;5012913;28;97326;-84
2023/04/15 08:01:42;;;;;;;12.05;11.30;;;;;;;10.94;57.60;99234.56;5040207;27;97982;-83
2023/04/15 08:04:09;;;;;;;11.93;11.27;;;;;;;10.86;56.97;99202.63;5004969;28;98850;-85
2023/04/15 08:06:35;;;;;;;12.30;11.60;;;;;;;11.00;57.19;99233.41;5013007;28;97304;-84
2023/04/15 08:09:01;;;;;;;11.52;10.93;;;;;;;11.23;57.01;99240.06;5011381;28;96979;-82
2023/04/15 08:11:26;;;;;;;10.95;10.35;;;;;;;11.35;56.79;99242.00;4995726;28;101491;-86
2023/04/15 08:13:52;;;;;;;12.07;11.00;;;;;;;11.47;56.87;99235.22;5020198;27;101538;-83
2023/04/15 08:16:24;;;;;;;12.05;11.30;;;;;;;11.60;55.61;99230.13;5013956;28;97356;-83
2023/04/15 08:18:51;;;;;;;12.05;11.23;;;;;;;11.74;55.60;99256.50;5039416;27;97178;-83
2023/04/15 08:21:18;;;;;;;12.02;11.23;;;;;;;11.78;55.18;99244.91;4992127;28;100306;-88
2023/04/15 08:23:45;;;;;;;11.43;10.73;;;;;;;12.01;54.36;99254.13;5028954;28;100092;-93
2023/04/15 08:26:13;;;;;;;12.68;11.88;;;;;;;12.42;53.58;99270.19;5006967;28;96752;-87
2023/04/15 08:28:40;;;;;;;11.50;10.70;;;;;;;13.00;52.21;99272.91;5031925;27;97336;-84
2023/04/15 08:31:06;;;;;;;11.32;10.63;;;;;;;13.53;51.80;99267.03;5013975;28;100408;-86
2023/04/15 08:33:31;;;;;;;11.20;10.55;;;;;;;14.41;49.66;99264.00;5012241;28;101491;-79
2023/04/15 08:35:57;;;;;;;11.93;11.32;;;;;;;15.16;48.53;99253.66;4996080;28;96888;-80
2023/04/15 08:38:22;;;;;;;11.73;11.00;;;;;;;15.85;47.17;99246.09;5007326;28;97306;-84
2023/04/15 08:40:48;;;;;;;12.68;11.77;;;;;;;16.75;45.34;99263.22;5010025;28;101819;-81
2023/04/15 08:43:25;;;;;;;12.82;12.02;;;;;;;16.96;44.83;99262.56;5012701;28;101367;-86
2023/04/15 08:45:52;;;;;;;13.48;12.68;;;;;;;17.35;42.80;99265.69;4993437;28;97556;-85
2023/04/15 08:48:18;;;;;;;12.60;11.90;;;;;;;16.74;43.04;99247.41;5008885;28;97987;-82
2023/04/15 08:50:45;;;;;;;13.02;12.05;;;;;;;16.91;44.21;99265.56;5023486;28;102032;-82
2023/04/15 08:53:11;;;;;;;12.23;11.52;;;;;;;17.18;43.22;99251.94;4997435;28;101676;-82
2023/04/15 08:55:43;;;;;;;12.90;12.15;;;;;;;17.64;41.65;99279.31;5013833;28;97251;-83
2023/04/15 08:58:09;;;;;;;12.70;11.93;;;;;;;17.42;42.03;99283.69;5011679;27;98580;-82
2023/04/15 09:00:35;;;;;;;12.88;12.13;;;;;;;18.02;42.34;99275.41;5018910;28;101667;-82
2023/04/15 09:03:01;;;;;;;12.32;11.73;;;;;;;18.68;39.61;99280.59;5017538;27;98413;-81
2023/04/15 09:05:26;;;;;;;12.15;11.55;;;;;;;18.57;38.89;99285.97;5011913;28;97324;-81
2023/04/15 09:07:52;;;;;;;12.57;11.88;;;;;;;18.83;39.05;99273.16;5019021;27;96853;-82
2023/04/15 09:10:17;;;;;;;12.82;12.13;;;;;;;18.77;38.61;99259.41;5012154;27;101804;-83
2023/04/15 09:12:43;;;;;;;13.07;12.38;;;;;;;18.04;39.60;99266.34;5012413;28;101765;-82
2023/04/15 09:15:11;;;;;;;12.48;11.77;;;;;;;17.51;40.31;99257.34;5030293;27;97333;-85
2023/04/15 09:17:45;;;;;;;13.02;12.23;;;;;;;17.35;41.71;99271.84;5013558;28;96898;-86
2023/04/15 09:20:15;;;;;;;12.75;12.05;;;;;;;17.71;42.20;99269.03;5005923;28;98632;-83
2023/04/15 09:22:41;;;;;;;13.63;12.63;;;;;;;18.36;41.75;99277.97;5011925;28;101431;-82
2023/04/15 09:25:23;;;;;;;13.10;12.40;;;;;;;18.88;40.15;99270.94;4993556;27;98169;-83
2023/04/15 09:27:51;;;;;;;;;;;;;;;19.00;39.47;99269.91;5024608;27;97360;-83
2023/04/15 09:30:17;;;;;;;13.55;12.82;;;;;;;19.21;39.40;99252.09;5023911;27;101297;-79
2023/04/15 09:32:57;;;;;;;15.10;14.23;;;;;;;19.52;38.35;99278.72;5027128;27;98019;-81
2023/04/15 09:35:23;;;;;;;12.30;11.65;;;;;;;19.58;37.86;99269.34;5027383;27;97274;-81
2023/04/15 09:37:50;;;;;;;12.88;11.93;;;;;;;19.53;37.59;99277.72;5014421;28;97492;-80
2023/04/15 09:40:32;;;;;;;13.07;12.25;;;;;;;19.64;37.05;99274.13;5015272;28;101150;-81
2023/04/15 09:42:58;;;;;;;13.02;12.32;;;;;;;19.35;37.59;99271.34;5010734;27;100964;-80
2023/04/15 09:45:24;;;;;;;12.00;11.20;;;;;;;18.74;38.89;99280.94;5015411;28;97554;-81
2023/04/15 09:47:50;;;;;;;12.88;12.02;;;;;;;18.17;39.95;99291.91;5015882;27;97374;-81
2023/04/15 09:50:16;;;;;;;12.88;12.20;;;;;;;17.99;39.66;99288.94;5017142;28;101416;-81
2023/04/15 09:52:42;;;;;;;13.60;12.90;;;;;;;17.64;41.14;99296.06;5038427;27;101884;-79
2023/04/15 09:55:08;;;;;;;13.50;12.50;;;;;;;17.18;41.88;99298.84;5018269;27;98066;-78
2023/04/15 09:57:37;;;;;;;13.27;12.57;;;;;;;16.97;42.52;99283.63;5030218;27;97277;-88
2023/04/15 10:00:05;;;;;;;13.25;12.27;;;;;;;17.25;41.61;99305.38;5030612;27;100438;-90
2023/04/15 10:02:32;;;;;;;11.90;11.30;;;;;;;17.45;41.79;99287.03;5005756;28;98095;-85
2023/04/15 10:04:58;;;;;;;11.88;11.27;;;;;;;17.93;40.56;99298.25;5031811;27;97179;-84
2023/04/15 10:07:24;;;;;;;11.73;11.13;;;;;;;17.56;39.08;99287.03;5020516;28;97184;-82
2023/04/15 10:09:50;;;;;;;12.10;11.50;;;;;;;17.47;40.18;99293.06;5039333;27;101582;-83
2023/04/15 10:12:17;;;;;;;11.90;11.20;;;;;;;17.49;40.84;99296.47;5016174;28;101657;-84
2023/04/15 10:14:43;;;;;;;11.18;10.57;;;;;;;17.59;39.63;99302.72;5029330;28;97091;-83
2023/04/15 10:17:11;;;;;;;11.48;10.88;;;;;;;17.48;39.73;99300.06;5009445;28;97595;-82
2023/04/15 10:19:37;;;;;;;12.13;11.32;;;;;;;17.19;41.46;99295.22;5036565;27;101637;-85
2023/04/15 10:22:03;;;;;;;11.70;11.10;;;;;;;17.37;40.26;99300.91;4999859;28;99102;-85
2023/04/15 10:24:32;;;;;;;11.98;11.38;;;;;;;16.99;39.48;99291.47;5033920;28;97127;-86
2023/04/15 10:26:59;;;;;;;12.60;11.95;;;;;;;16.19;40.36;99291.28;5027608;27;97074;-86
2023/04/15 10:29:26;;;;;;;13.75;12.93;;;;;;;16.15;41.62;99297.78;5015993;28;101631;-78
2023/04/15 10:31:54;;;;;;;12.55;11.88;;;;;;;16.35;41.37;99293.63;5013503;28;97455;-82
2023/04/15 10:34:20;;;;;;;12.98;12.27;;;;;;;16.17;41.59;99295.84;5016007;28;96758;-80
2023/04/15 10:36:46;;;;;;;12.57;11.88;;;;;;;15.96;42.38;99272.63;5020310;28;96780;-81
2023/04/15 10:39:33;;;;;;;13.15;12.38;;;;;;;15.93;41.64;99295.81;5010667;28;101097;-81
2023/04/15 10:42:07;;;;;;;12.73;12.02;;;;;;;15.65;42.11;99287.22;5031484;27;98033;-82
2023/04/15 10:44:32;;;;;;;13.00;12.30;;;;;;;15.52;42.51;99304.88;5026790;28;97312;-83
2023/04/15 10:46:58;;;;;;;12.40;11.70;;;;;;;15.26;42.36;99294.34;5015217;28;97307;-81
2023/04/15 10:49:25;;;;;;;12.63;11.93;;;;;;;14.96;43.66;99284.09;5010685;28;100912;-83
2023/04/15 10:52:02;;;;;;;12.15;11.45;;;;;;;15.27;43.61;99309.25;5046097;27;101404;-81
2023/04/15 10:54:27;;;;;;;12.95;12.15;;;;;;;15.30;43.44;99316.09;5013143;28;97326;-82
2023/04/15 10:57:20;;;;;;;13.27;12.55;;;;;;;15.34;43.43;99315.78;5031658;28;97282;-83
2023/04/15 10:59:58;;;;;;;12.80;12.15;;;;;;;15.26;43.35;99319.94;4985784;28;101442;-84
2023/04/15 11:02:46;;;;;;;11.77;11.18;;;;;;;14.91;43.97;99316.09;4969634;28;101490;-79
2023/04/15 11:05:13;;;;;;;12.70;12.00;;;;;;;14.87;45.34;99319.06;4966424;28;97229;-79
2023/04/15 11:07:38;;;;;;;13.18;12.38;;;;;;;15.15;44.68;99320.66;4953193;28;97571;-79
2023/04/15 11:10:24;;;;;;;12.48;11.65;;;;;;;15.05;44.22;99327.53;4977964;28;98353;-80
2023/04/15 11:12:51;;;;;;;13.10;12.40;;;;;;;14.85;44.68;99331.53;4968316;28;101659;-79
2023/04/15 11:15:46;;;;;;;11.98;11.38;;;;;;;14.82;44.67;99334.38;4942989;28;96939;-80
2023/04/15 11:18:22;;;;;;;12.68;11.98;;;;;;;14.78;44.51;99338.19;4948482;28;96964;-79
2023/04/15 11:20:53;;;;;;;13.90;13.10;;;;;;;14.57;44.86;99332.50;4968640;28;101487;-80